Time;durP1;ratioP1;P1;durP2;ratioP2;P2;SDS_P1;SDS_P2;PMS_P1;PMS_P2;Temp;Humidity;BMP_temperature;BMP_pressure;BME280_temperature;BME280_humidity;BME280_pressure;Samples;Min_cycle;Max_cycle;Signal;HPM_P1;HPM_P2
2021/06/19 00:00:31;;;;;;;7.38;4.30;;;24.00;65.10;;;;;;5035205;28;20343;-84
2021/06/19 00:02:58;;;;;;;4.88;2.92;;;24.00;65.30;;;;;;5017918;28;20029;-84
2021/06/19 00:05:25;;;;;;;4.20;3.70;;;23.90;65.40;;;;;;5033177;28;20024;-84
2021/06/19 00:07:51;;;;;;;3.33;2.50;;;23.90;65.60;;;;;;5051007;28;20033;-84
2021/06/19 00:10:18;;;;;;;5.45;3.13;;;23.90;65.60;;;;;;5034902;28;20087;-84
2021/06/19 00:12:47;;;;;;;5.57;4.15;;;23.80;65.70;;;;;;5017889;28;20033;-85
2021/06/19 00:15:15;;;;;;;3.53;1.40;;;23.70;65.90;;;;;;5015922;28;20057;-83
2021/06/19 00:17:41;;;;;;;3.85;3.50;;;23.70;65.80;;;;;;5033947;28;20033;-84
2021/06/19 00:20:10;;;;;;;4.65;4.22;;;23.60;65.90;;;;;;4999708;28;20034;-84
2021/06/19 00:22:36;;;;;;;3.03;2.28;;;23.60;65.90;;;;;;5031145;28;20273;-85
2021/06/19 00:25:02;;;;;;;5.10;4.60;;;23.70;65.80;;;;;;5053935;28;20473;-85
2021/06/19 00:27:28;;;;;;;5.60;4.63;;;23.70;65.90;;;;;;5052553;28;20024;-85
2021/06/19 00:29:53;;;;;;;6.70;4.57;;;23.60;65.90;;;;;;5036510;28;20036;-85
2021/06/19 00:32:19;;;;;;;4.25;2.50;;;23.60;66.00;;;;;;5002360;28;20046;-85
2021/06/19 00:34:45;;;;;;;4.55;3.67;;;23.60;66.10;;;;;;5015845;28;20462;-85
2021/06/19 00:37:12;;;;;;;3.05;2.65;;;23.50;66.20;;;;;;5032066;28;20094;-85
2021/06/19 00:39:38;;;;;;;3.70;2.78;;;23.50;66.40;;;;;;5032409;28;20086;-85
2021/06/19 00:42:04;;;;;;;3.70;3.35;;;23.40;66.50;;;;;;5031749;28;20122;-85
2021/06/19 00:44:30;;;;;;;3.30;2.97;;;23.40;66.60;;;;;;5032832;28;20410;-85
2021/06/19 00:46:56;;;;;;;4.50;2.58;;;23.40;66.70;;;;;;5016778;28;20132;-84
2021/06/19 00:49:25;;;;;;;3.47;1.77;;;23.30;66.90;;;;;;5015692;28;20048;-85
2021/06/19 00:51:51;;;;;;;2.70;1.70;;;23.20;67.00;;;;;;5030636;28;20028;-85
2021/06/19 00:54:17;;;;;;;2.75;1.95;;;23.10;67.30;;;;;;5019385;28;20029;-85
2021/06/19 00:56:44;;;;;;;2.45;1.52;;;23.00;67.50;;;;;;5019281;28;20025;-85
2021/06/19 00:59:10;;;;;;;2.03;1.70;;;23.00;67.60;;;;;;5035479;28;20381;-85
2021/06/19 01:01:36;;;;;;;2.53;1.27;;;22.90;67.60;;;;;;5022354;28;20025;-85
2021/06/19 01:04:04;;;;;;;2.83;1.50;;;22.80;67.70;;;;;;5031702;28;20541;-85
2021/06/19 01:06:31;;;;;;;4.78;3.85;;;22.80;67.90;;;;;;5031144;28;20043;-85
2021/06/19 01:08:56;;;;;;;3.20;2.90;;;22.80;68.00;;;;;;5015163;28;20069;-85
2021/06/19 01:11:23;;;;;;;1.73;1.63;;;22.90;67.90;;;;;;5014852;28;20072;-83
2021/06/19 01:13:51;;;;;;;3.30;2.22;;;22.90;67.90;;;;;;4998468;28;20496;-85
2021/06/19 01:16:18;;;;;;;1.45;0.80;;;22.80;68.00;;;;;;4998594;28;20116;-84
2021/06/19 01:18:45;;;;;;;3.60;2.40;;;22.80;68.00;;;;;;5013895;28;20025;-84
2021/06/19 01:21:22;;;;;;;2.13;1.52;;;22.70;68.30;;;;;;5038079;28;20025;-84
2021/06/19 01:23:49;;;;;;;2.60;1.77;;;22.70;68.50;;;;;;5038971;28;20436;-84
2021/06/19 01:26:16;;;;;;;3.85;2.55;;;22.70;68.50;;;;;;5034770;28;20028;-84
2021/06/19 01:28:43;;;;;;;4.22;2.45;;;22.70;68.60;;;;;;5051032;28;20141;-84
2021/06/19 01:31:09;;;;;;;3.35;2.25;;;22.70;69.10;;;;;;5014046;28;20046;-84
2021/06/19 01:33:37;;;;;;;3.65;1.50;;;22.70;68.70;;;;;;5032010;28;20038;-85
2021/06/19 01:36:03;;;;;;;3.88;2.30;;;22.70;68.80;;;;;;5015957;28;20040;-85
2021/06/19 01:38:28;;;;;;;2.25;1.20;;;22.60;68.90;;;;;;5033693;28;20025;-84
2021/06/19 01:40:54;;;;;;;2.25;1.50;;;22.50;69.00;;;;;;5000112;28;20104;-84
2021/06/19 01:43:20;;;;;;;2.40;1.90;;;22.50;69.30;;;;;;4999042;28;20084;-83
2021/06/19 01:45:45;;;;;;;3.17;2.33;;;22.40;69.60;;;;;;5015010;28;20025;-84
2021/06/19 01:48:11;;;;;;;2.67;1.40;;;22.30;69.70;;;;;;5014485;28;20158;-85
2021/06/19 01:50:37;;;;;;;3.83;1.88;;;22.40;69.60;;;;;;5016110;28;20574;-85
2021/06/19 01:53:04;;;;;;;2.70;1.40;;;22.40;69.70;;;;;;5034191;28;20108;-84
2021/06/19 01:55:30;;;;;;;1.40;0.77;;;22.40;69.90;;;;;;5034083;28;20096;-84
2021/06/19 01:57:59;;;;;;;3.65;1.63;;;22.30;69.90;;;;;;5052234;28;20416;-84
2021/06/19 02:00:35;;;;;;;3.00;1.30;;;22.20;70.10;;;;;;5052104;28;20026;-84
2021/06/19 02:03:01;;;;;;;3.85;1.65;;;22.20;70.30;;;;;;5052186;28;20028;-84
2021/06/19 02:05:27;;;;;;;3.08;1.48;;;22.20;70.30;;;;;;5051909;28;20033;-85
2021/06/19 02:07:58;;;;;;;1.95;1.75;;;22.30;70.50;;;;;;5053340;28;20402;-84
2021/06/19 02:10:29;;;;;;;3.22;1.90;;;22.20;70.30;;;;;;5051469;28;20046;-85
2021/06/19 02:12:56;;;;;;;2.05;1.20;;;22.30;70.40;;;;;;5033323;28;20457;-84
2021/06/19 02:15:23;;;;;;;2.08;1.88;;;22.30;70.40;;;;;;5033211;28;20037;-84
2021/06/19 02:17:49;;;;;;;3.17;1.50;;;22.20;70.50;;;;;;5041531;28;20086;-83
2021/06/19 02:20:17;;;;;;;2.47;1.88;;;22.30;70.60;;;;;;5037508;28;20499;-85
2021/06/19 02:22:43;;;;;;;1.90;1.40;;;22.30;70.70;;;;;;5038091;28;20465;-84
2021/06/19 02:25:11;;;;;;;4.25;1.50;;;22.20;70.60;;;;;;5050264;28;20031;-85
2021/06/19 02:27:51;;;;;;;2.78;1.30;;;22.20;70.80;;;;;;5023290;28;20090;-84
2021/06/19 02:30:17;;;;;;;1.70;1.20;;;22.20;71.00;;;;;;5037381;28;20025;-85
2021/06/19 02:32:43;;;;;;;2.15;1.27;;;22.10;71.10;;;;;;5033324;28;20049;-85
2021/06/19 02:35:10;;;;;;;3.65;1.45;;;22.00;71.30;;;;;;5017768;28;20442;-85
2021/06/19 02:37:35;;;;;;;2.00;1.55;;;22.00;71.60;;;;;;5026327;28;20030;-84
2021/06/19 02:40:02;;;;;;;2.13;1.67;;;22.00;71.60;;;;;;4998133;28;20120;-85
2021/06/19 02:42:28;;;;;;;3.63;1.30;;;22.00;71.70;;;;;;5033667;28;20504;-84
2021/06/19 02:44:53;;;;;;;1.33;1.10;;;22.00;71.80;;;;;;5033394;28;20124;-85
2021/06/19 02:47:19;;;;;;;2.65;1.10;;;21.90;72.10;;;;;;5017939;28;20377;-84
2021/06/19 02:49:44;;;;;;;3.10;1.40;;;21.80;72.30;;;;;;5033239;28;20052;-84
2021/06/19 02:52:10;;;;;;;2.60;1.60;;;21.80;72.50;;;;;;5033591;28;20523;-84
2021/06/19 02:54:40;;;;;;;2.95;1.50;;;21.70;72.50;;;;;;5033357;28;20029;-85
2021/06/19 02:57:07;;;;;;;1.67;1.50;;;21.70;72.60;;;;;;5014452;28;20034;-84
2021/06/19 02:59:33;;;;;;;2.30;1.35;;;21.70;72.60;;;;;;5014362;28;20425;-83
2021/06/19 03:01:59;;;;;;;4.03;1.60;;;21.80;72.60;;;;;;5015570;28;20042;-84
2021/06/19 03:04:24;;;;;;;2.00;1.00;;;21.80;72.60;;;;;;5015198;28;20034;-84
2021/06/19 03:06:50;;;;;;;1.83;1.13;;;21.80;72.60;;;;;;4996611;28;20398;-85
2021/06/19 03:09:16;;;;;;;1.88;0.90;;;21.70;72.80;;;;;;5015574;28;20030;-84
2021/06/19 03:11:41;;;;;;;3.22;1.33;;;21.60;73.20;;;;;;5005045;28;20034;-85
2021/06/19 03:14:07;;;;;;;1.52;1.30;;;21.60;73.40;;;;;;5015143;28;20030;-84
2021/06/19 03:16:35;;;;;;;2.72;1.20;;;21.50;73.30;;;;;;5014346;28;20134;-84
2021/06/19 03:19:01;;;;;;;1.75;1.10;;;21.50;73.30;;;;;;5029274;28;20023;-84
2021/06/19 03:21:26;;;;;;;1.75;1.33;;;21.50;73.20;;;;;;4998640;28;20242;-85
2021/06/19 03:23:52;;;;;;;2.25;1.10;;;21.60;73.10;;;;;;5014584;28;20034;-84
2021/06/19 03:26:18;;;;;;;2.03;1.10;;;21.60;72.90;;;;;;5003907;28;20042;-85
2021/06/19 03:28:43;;;;;;;1.83;1.02;;;21.70;72.90;;;;;;5012355;28;20058;-85
2021/06/19 03:31:09;;;;;;;2.97;1.20;;;21.60;72.80;;;;;;5018952;28;20132;-84
2021/06/19 03:33:34;;;;;;;1.75;1.05;;;21.60;72.90;;;;;;5054612;28;20037;-84
2021/06/19 03:36:00;;;;;;;1.98;1.02;;;21.60;73.00;;;;;;5053865;28;20600;-84
2021/06/19 03:38:26;;;;;;;2.17;1.38;;;21.50;73.20;;;;;;5020652;28;20466;-84
2021/06/19 03:40:51;;;;;;;1.77;1.42;;;21.60;73.20;;;;;;5053440;28;20453;-85
2021/06/19 03:43:17;;;;;;;2.10;0.93;;;21.60;73.20;;;;;;5017232;28;20462;-84
2021/06/19 03:45:43;;;;;;;1.80;1.02;;;21.60;73.20;;;;;;5032011;28;20033;-84
2021/06/19 03:48:08;;;;;;;1.83;1.00;;;21.60;73.20;;;;;;5034182;28;20415;-84
2021/06/19 03:50:35;;;;;;;1.67;0.90;;;21.60;73.30;;;;;;5016238;28;20029;-84
2021/06/19 03:53:00;;;;;;;2.28;0.98;;;21.50;73.30;;;;;;5031827;28;20072;-84
2021/06/19 03:55:27;;;;;;;2.75;1.27;;;21.50;73.50;;;;;;4999914;28;20053;-84
2021/06/19 03:57:54;;;;;;;2.15;1.08;;;21.40;73.70;;;;;;5033313;28;20040;-85
2021/06/19 04:00:21;;;;;;;1.38;0.90;;;21.20;74.00;;;;;;5033879;28;20113;-85
2021/06/19 04:02:47;;;;;;;2.05;1.20;;;21.30;74.20;;;;;;5028226;28;20025;-84
2021/06/19 04:05:13;;;;;;;1.60;0.90;;;21.30;73.90;;;;;;5016277;28;20473;-85
2021/06/19 04:07:40;;;;;;;1.75;1.20;;;21.40;73.80;;;;;;5015810;28;20058;-84
2021/06/19 04:10:07;;;;;;;1.85;1.15;;;21.50;73.50;;;;;;5032000;28;20210;-84
2021/06/19 04:12:33;;;;;;;1.05;0.85;;;21.90;72.70;;;;;;5026277;28;20025;-85
2021/06/19 04:14:59;;;;;;;1.98;0.85;;;22.10;72.30;;;;;;5015401;28;20036;-84
2021/06/19 04:17:25;;;;;;;3.70;0.90;;;22.20;71.90;;;;;;5016027;28;20041;-83
2021/06/19 04:19:50;;;;;;;1.38;0.90;;;22.30;71.60;;;;;;5033431;28;20017;-84
2021/06/19 04:22:16;;;;;;;1.58;0.93;;;23.50;69.60;;;;;;5044928;28;20482;-84
2021/06/19 04:24:42;;;;;;;2.17;0.70;;;25.00;66.00;;;;;;5035362;28;20033;-84
2021/06/19 04:27:14;;;;;;;2.08;0.98;;;26.60;62.80;;;;;;5034877;28;20394;-84
2021/06/19 04:29:40;;;;;;;2.33;0.68;;;27.80;60.50;;;;;;5053331;28;20096;-84
2021/06/19 04:32:06;;;;;;;1.25;0.70;;;28.40;57.90;;;;;;5030639;28;20072;-84
2021/06/19 04:34:32;;;;;;;1.15;0.70;;;28.30;56.70;;;;;;5053017;28;20075;-84
2021/06/19 04:36:57;;;;;;;1.90;0.60;;;27.50;58.30;;;;;;5034353;28;20033;-84
2021/06/19 04:39:23;;;;;;;1.27;0.60;;;26.60;60.30;;;;;;5035590;28;20497;-84
2021/06/19 04:46:47;;;;;;;0.93;0.60;;;25.00;63.20;;;;;;5033237;28;20021;-84
2021/06/19 04:49:12;;;;;;;1.83;0.70;;;24.70;63.80;;;;;;5015130;28;20102;-84
2021/06/19 04:51:38;;;;;;;3.25;0.80;;;24.40;64.10;;;;;;5022395;28;20032;-86
2021/06/19 04:54:04;;;;;;;1.10;0.60;;;24.30;64.60;;;;;;5034917;28;20028;-86
2021/06/19 04:56:30;;;;;;;1.42;0.80;;;24.00;65.00;;;;;;5035052;28;20024;-84
2021/06/19 04:58:56;;;;;;;1.27;0.80;;;23.90;65.30;;;;;;5015041;28;20022;-85
2021/06/19 05:01:21;;;;;;;2.15;1.00;;;23.90;65.30;;;;;;4999219;28;20026;-83
2021/06/19 05:03:47;;;;;;;1.48;1.08;;;24.20;65.00;;;;;;5015854;28;20091;-82
2021/06/19 05:06:13;;;;;;;2.38;1.20;;;25.00;63.90;;;;;;5031343;28;20413;-85
2021/06/19 05:08:39;;;;;;;1.95;1.10;;;26.60;60.70;;;;;;5032929;28;20051;-83
2021/06/19 05:11:05;;;;;;;2.95;1.10;;;27.10;58.70;;;;;;5032759;28;20025;-84
2021/06/19 05:13:31;;;;;;;1.27;1.00;;;26.90;58.80;;;;;;4998861;28;20083;-84
2021/06/19 05:15:56;;;;;;;1.75;1.00;;;26.70;59.00;;;;;;4998300;28;20032;-83
2021/06/19 05:18:22;;;;;;;3.00;1.15;;;27.00;58.90;;;;;;5015340;28;20032;-84
2021/06/19 05:20:48;;;;;;;2.78;1.00;;;27.20;57.80;;;;;;5001142;28;20041;-83
2021/06/19 05:23:13;;;;;;;1.08;0.70;;;27.00;58.10;;;;;;5018059;28;20032;-83
2021/06/19 05:25:39;;;;;;;3.00;0.82;;;26.70;58.90;;;;;;5034887;28;20021;-83
2021/06/19 05:28:05;;;;;;;2.83;1.10;;;26.30;59.80;;;;;;5051748;28;20029;-83
2021/06/19 05:30:31;;;;;;;1.40;0.80;;;25.90;60.60;;;;;;5035547;28;20030;-82
2021/06/19 05:32:57;;;;;;;2.20;0.80;;;25.50;61.20;;;;;;5036862;28;20050;-86
2021/06/19 05:35:24;;;;;;;1.30;0.60;;;26.70;60.40;;;;;;5017662;28;20029;-87
2021/06/19 05:37:50;;;;;;;1.95;0.77;;;28.40;56.40;;;;;;5036122;28;20108;-86
2021/06/19 05:40:16;;;;;;;1.30;0.65;;;29.30;53.60;;;;;;5043206;28;20028;-88
2021/06/19 05:42:42;;;;;;;1.55;0.82;;;29.20;53.10;;;;;;5036077;28;20034;-86
2021/06/19 05:45:09;;;;;;;1.10;0.70;;;29.00;53.30;;;;;;5028890;28;20037;-86
2021/06/19 05:47:34;;;;;;;1.73;0.73;;;28.90;53.40;;;;;;5019432;28;20026;-86
2021/06/19 05:50:00;;;;;;;2.78;0.90;;;28.60;53.80;;;;;;5011039;28;20429;-86
2021/06/19 05:52:26;;;;;;;2.00;0.80;;;28.90;53.60;;;;;;5012555;28;20061;-86
2021/06/19 05:54:52;;;;;;;1.85;0.80;;;29.50;52.70;;;;;;4995126;28;20101;-85
2021/06/19 05:57:18;;;;;;;2.28;0.80;;;30.60;51.20;;;;;;5011597;28;20041;-85
2021/06/19 05:59:44;;;;;;;3.80;0.98;;;31.60;48.40;;;;;;5013568;28;20030;-86
2021/06/19 06:02:09;;;;;;;3.05;0.93;;;32.50;46.70;;;;;;4994739;28;20026;-85
2021/06/19 06:04:35;;;;;;;2.17;0.90;;;33.10;45.40;;;;;;5011309;28;20030;-84
2021/06/19 06:07:02;;;;;;;1.48;0.80;;;33.50;44.20;;;;;;5031093;28;20029;-87
2021/06/19 06:09:28;;;;;;;2.15;0.70;;;33.80;43.60;;;;;;5038409;28;20021;-85
2021/06/19 06:11:54;;;;;;;2.25;1.00;;;34.40;42.90;;;;;;5023437;28;20029;-85
2021/06/19 06:14:19;;;;;;;1.45;0.80;;;34.80;42.00;;;;;;5047406;28;20025;-85
2021/06/19 06:16:45;;;;;;;2.13;0.80;;;34.70;41.50;;;;;;5031170;28;20099;-85
2021/06/19 06:19:11;;;;;;;1.75;0.80;;;34.80;41.50;;;;;;5032092;28;20042;-85
2021/06/19 06:21:37;;;;;;;1.42;0.70;;;34.80;41.10;;;;;;5014726;28;20101;-84
2021/06/19 06:24:03;;;;;;;1.80;0.70;;;34.90;40.90;;;;;;5029078;28;20039;-85
2021/06/19 06:26:29;;;;;;;1.27;0.73;;;35.20;40.50;;;;;;5026525;28;20061;-83
2021/06/19 06:28:55;;;;;;;1.02;0.70;;;35.10;40.00;;;;;;5019124;28;20053;-82
2021/06/19 06:31:20;;;;;;;0.90;0.73;;;34.30;40.90;;;;;;5042062;28;20040;-82
2021/06/19 06:33:47;;;;;;;2.40;0.80;;;34.40;41.00;;;;;;5018153;28;20061;-82
2021/06/19 06:36:13;;;;;;;1.27;0.70;;;35.00;40.50;;;;;;5010579;28;20113;-83
2021/06/19 06:38:38;;;;;;;1.67;0.77;;;35.50;39.90;;;;;;5020616;28;20071;-81
2021/06/19 06:41:04;;;;;;;1.02;0.57;;;36.00;39.30;;;;;;5013512;28;20046;-85
2021/06/19 06:43:30;;;;;;;1.70;0.70;;;35.90;38.90;;;;;;5031571;28;20026;-83
2021/06/19 06:45:56;;;;;;;1.20;0.65;;;36.10;39.10;;;;;;5014299;28;20106;-82
2021/06/19 06:48:22;;;;;;;1.25;0.70;;;36.40;38.80;;;;;;5013820;28;20059;-82
2021/06/19 06:50:47;;;;;;;1.38;0.77;;;36.30;38.50;;;;;;5011531;28;20474;-82
2021/06/19 06:53:13;;;;;;;3.70;0.80;;;36.30;38.40;;;;;;5029524;28;20029;-82
2021/06/19 06:55:39;;;;;;;1.17;0.70;;;36.40;38.00;;;;;;5030591;28;20121;-81
2021/06/19 06:58:05;;;;;;;4.32;1.35;;;36.30;38.20;;;;;;5030067;28;20124;-85
2021/06/19 07:00:30;;;;;;;2.10;0.90;;;35.60;39.10;;;;;;5030256;28;20100;-82
2021/06/19 07:02:57;;;;;;;4.25;0.90;;;35.50;38.80;;;;;;5009529;28;20036;-81
2021/06/19 07:05:23;;;;;;;1.80;0.90;;;35.30;39.80;;;;;;5014328;28;20036;-83
2021/06/19 07:07:48;;;;;;;3.90;0.98;;;35.80;39.40;;;;;;5027462;28;20374;-83
2021/06/19 07:10:51;;;;;;;2.17;0.90;;;36.10;39.30;;;;;;5033646;28;20025;-84
2021/06/19 07:13:17;;;;;;;1.67;0.60;;;36.20;38.20;;;;;;5034783;28;20030;-86
2021/06/19 07:16:01;;;;;;;;;;;;;;;;;;;;;
2021/06/19 07:18:44;;;;;;;0.90;0.60;;;35.60;38.80;;;;;;5035163;28;20063;-84
2021/06/19 07:21:57;;;;;;;1.73;0.55;;;35.90;39.10;;;;;;5025528;28;20049;-86
2021/06/19 07:24:23;;;;;;;1.85;0.60;;;35.80;38.90;;;;;;5052891;28;20111;-82
2021/06/19 07:26:48;;;;;;;0.93;0.50;;;35.80;39.10;;;;;;5053622;28;20112;-81
2021/06/19 07:29:14;;;;;;;3.03;0.50;;;36.20;38.70;;;;;;5052818;28;20112;-84
2021/06/19 07:31:40;;;;;;;1.13;0.50;;;36.30;38.00;;;;;;5054182;28;20484;-83
2021/06/19 07:34:06;;;;;;;0.98;0.32;;;36.40;38.40;;;;;;5055930;28;20053;-79
2021/06/19 07:36:31;;;;;;;0.93;0.40;;;36.60;38.00;;;;;;5073544;28;20485;-81
2021/06/19 07:38:57;;;;;;;0.80;0.50;;;36.90;37.40;;;;;;5051252;28;20108;-83
2021/06/19 07:41:22;;;;;;;2.42;0.70;;;36.90;37.40;;;;;;5047895;28;20045;-82
2021/06/19 07:43:48;;;;;;;1.30;0.60;;;36.60;36.90;;;;;;5043442;28;20029;-81
2021/06/19 07:46:14;;;;;;;0.80;0.60;;;35.70;38.70;;;;;;5025257;28;20039;-89
2021/06/19 07:48:39;;;;;;;0.73;0.50;;;35.30;39.20;;;;;;5061249;28;20033;-82
2021/06/19 07:51:05;;;;;;;2.40;0.70;;;35.60;39.30;;;;;;5054855;28;20097;-81
2021/06/19 07:53:31;;;;;;;1.30;0.60;;;36.00;38.60;;;;;;5055259;28;20107;-83
2021/06/19 07:55:56;;;;;;;2.03;0.60;;;36.10;38.20;;;;;;5039497;28;20130;-80
2021/06/19 07:58:22;;;;;;;0.98;0.60;;;35.80;38.30;;;;;;5062134;28;20033;-81
2021/06/19 08:00:48;;;;;;;2.03;0.70;;;36.20;38.40;;;;;;5053956;28;20445;-80
2021/06/19 08:03:13;;;;;;;4.32;0.90;;;36.30;38.00;;;;;;5019468;28;20476;-83
2021/06/19 08:05:39;;;;;;;2.72;0.60;;;35.90;37.20;;;;;;5019081;28;20461;-80
2021/06/19 08:08:05;;;;;;;1.35;0.60;;;35.20;39.60;;;;;;5036186;28;20477;-80
2021/06/19 08:10:31;;;;;;;1.90;0.55;;;35.20;39.30;;;;;;5034938;28;20124;-78
2021/06/19 08:12:56;;;;;;;1.00;0.60;;;35.50;38.90;;;;;;5053056;28;20413;-80
2021/06/19 08:15:23;;;;;;;0.68;0.40;;;35.90;38.50;;;;;;5018739;28;20079;-81
2021/06/19 08:17:49;;;;;;;0.80;0.40;;;36.00;38.50;;;;;;5035332;28;20155;-80
2021/06/19 08:20:15;;;;;;;2.10;0.50;;;36.40;38.30;;;;;;5053342;28;20061;-80
2021/06/19 08:22:41;;;;;;;0.93;0.50;;;36.60;37.40;;;;;;5053011;28;20029;-80
2021/06/19 08:25:08;;;;;;;1.02;0.50;;;36.80;37.40;;;;;;5019429;28;20036;-80
2021/06/19 08:27:33;;;;;;;1.15;0.50;;;36.80;37.50;;;;;;5035715;28;20032;-80
2021/06/19 08:29:59;;;;;;;0.73;0.40;;;36.80;37.00;;;;;;5053378;28;20033;-81
2021/06/19 08:32:25;;;;;;;0.47;0.30;;;36.80;37.60;;;;;;5035067;28;20057;-81
2021/06/19 08:34:51;;;;;;;0.63;0.40;;;37.00;36.80;;;;;;5029993;28;20124;-81
2021/06/19 08:37:17;;;;;;;0.77;0.45;;;37.20;36.60;;;;;;5033504;28;20088;-81
2021/06/19 08:39:43;;;;;;;0.70;0.40;;;37.20;36.80;;;;;;5048783;28;20033;-81
2021/06/19 08:42:10;;;;;;;3.05;0.55;;;36.90;36.80;;;;;;5039849;28;20095;-81
2021/06/19 08:44:36;;;;;;;2.05;0.40;;;36.80;37.20;;;;;;5051839;28;20112;-80
2021/06/19 08:47:02;;;;;;;1.83;0.40;;;36.80;37.10;;;;;;5035497;28;20139;-80
2021/06/19 08:49:29;;;;;;;1.70;0.40;;;36.70;37.00;;;;;;5030687;28;20082;-82
2021/06/19 08:51:57;;;;;;;0.75;0.47;;;36.60;37.40;;;;;;5053415;28;20025;-82
2021/06/19 08:54:24;;;;;;;0.80;0.40;;;37.00;37.10;;;;;;5035735;28;20029;-85
2021/06/19 08:56:50;;;;;;;1.75;0.60;;;37.30;36.90;;;;;;5053280;28;20150;-82
2021/06/19 08:59:17;;;;;;;1.00;0.50;;;37.50;36.80;;;;;;5053287;28;20374;-81
2021/06/19 09:01:43;;;;;;;3.22;0.40;;;37.40;36.70;;;;;;5053374;28;20032;-81
2021/06/19 09:04:10;;;;;;;2.65;0.45;;;37.60;36.40;;;;;;5036109;28;20033;-81
2021/06/19 09:06:42;;;;;;;0.47;0.38;;;37.80;36.70;;;;;;5053519;28;20032;-82
2021/06/19 09:09:19;;;;;;;2.47;0.40;;;37.90;36.30;;;;;;5035617;28;20083;-82
2021/06/19 09:11:50;;;;;;;1.95;0.40;;;37.40;35.90;;;;;;5035171;28;20496;-80
2021/06/19 09:14:17;;;;;;;1.02;0.50;;;37.40;36.80;;;;;;5053424;28;20484;-84
2021/06/19 09:16:58;;;;;;;0.93;0.40;;;37.50;36.00;;;;;;5034787;28;20116;-81
2021/06/19 09:19:28;;;;;;;2.35;0.43;;;37.20;36.50;;;;;;5053148;28;20025;-81
2021/06/19 09:22:18;;;;;;;1.55;0.40;;;37.00;36.80;;;;;;5035572;28;20036;-81
2021/06/19 09:24:55;;;;;;;1.48;0.60;;;36.70;37.50;;;;;;5051871;28;20025;-81
2021/06/19 09:27:38;;;;;;;1.00;0.40;;;37.00;36.80;;;;;;5018412;28;20021;-81
2021/06/19 09:30:21;;;;;;;1.38;0.50;;;37.10;37.10;;;;;;5032671;28;20025;-82
2021/06/19 09:32:47;;;;;;;1.40;0.50;;;37.30;36.60;;;;;;5045770;28;20076;-86
2021/06/19 09:35:29;;;;;;;1.73;0.40;;;37.50;36.30;;;;;;5032918;28;20044;-86
2021/06/19 09:38:09;;;;;;;1.60;0.50;;;37.60;36.40;;;;;;5038011;28;20037;-86
2021/06/19 09:40:36;;;;;;;2.45;0.50;;;37.40;36.40;;;;;;5033586;28;20087;-85
2021/06/19 09:43:23;;;;;;;1.13;0.50;;;37.40;36.50;;;;;;5014943;28;20041;-83
2021/06/19 09:46:00;;;;;;;1.42;0.50;;;37.40;36.30;;;;;;5047442;28;20025;-83
2021/06/19 09:48:40;;;;;;;1.00;0.50;;;37.40;36.10;;;;;;5015022;28;20544;-85
2021/06/19 09:51:24;;;;;;;2.05;0.50;;;37.10;36.40;;;;;;5033304;28;20037;-85
2021/06/19 09:54:06;;;;;;;2.55;0.57;;;37.20;36.80;;;;;;5048055;28;20132;-87
2021/06/19 09:56:46;;;;;;;1.05;0.40;;;36.90;36.50;;;;;;5047192;28;20061;-86
2021/06/19 09:59:33;;;;;;;0.82;0.40;;;36.90;36.90;;;;;;5014781;28;20028;-82
2021/06/19 10:02:01;;;;;;;0.70;0.50;;;36.90;37.10;;;;;;5014933;28;20116;-84
2021/06/19 10:04:31;;;;;;;0.70;0.40;;;37.10;37.10;;;;;;5015303;28;20044;-84
2021/06/19 10:06:59;;;;;;;2.17;0.50;;;37.10;36.80;;;;;;5032474;28;20026;-85
2021/06/19 10:09:25;;;;;;;1.30;0.50;;;37.20;37.00;;;;;;5015404;28;20025;-83
2021/06/19 10:11:52;;;;;;;1.85;0.50;;;37.50;36.40;;;;;;4997823;28;20075;-83
2021/06/19 10:14:21;;;;;;;2.05;0.45;;;37.50;36.40;;;;;;5014852;28;20022;-85
2021/06/19 10:16:49;;;;;;;1.92;0.52;;;37.40;36.60;;;;;;5031635;28;20031;-83
2021/06/19 10:19:22;;;;;;;1.75;0.60;;;37.60;36.30;;;;;;5014437;28;20112;-85
2021/06/19 10:21:50;;;;;;;1.17;0.40;;;37.60;35.90;;;;;;5013939;28;20052;-84
2021/06/19 10:24:18;;;;;;;0.95;0.50;;;37.30;36.40;;;;;;5031988;28;20033;-85
2021/06/19 10:26:45;;;;;;;1.27;0.50;;;36.80;36.50;;;;;;5032740;28;20032;-83
2021/06/19 10:29:11;;;;;;;1.95;0.50;;;36.30;37.10;;;;;;5036497;28;20049;-84
2021/06/19 10:31:39;;;;;;;0.90;0.50;;;36.30;37.70;;;;;;5012195;28;20426;-88
2021/06/19 10:34:28;;;;;;;2.20;0.40;;;36.40;37.90;;;;;;5026385;28;20082;-84
2021/06/19 10:37:08;;;;;;;1.15;0.52;;;36.70;37.50;;;;;;5013903;28;20032;-84
2021/06/19 10:39:43;;;;;;;0.70;0.43;;;36.90;37.10;;;;;;5015431;28;20037;-81
2021/06/19 10:42:31;;;;;;;1.50;0.50;;;36.90;36.90;;;;;;5016406;28;20072;-85
2021/06/19 10:44:59;;;;;;;1.10;0.50;;;36.80;37.20;;;;;;5014388;28;20300;-84
2021/06/19 10:47:57;;;;;;;0.77;0.57;;;36.60;37.60;;;;;;5014956;28;20029;-84
2021/06/19 10:50:24;;;;;;;0.88;0.50;;;36.70;37.20;;;;;;5008827;28;20108;-85
2021/06/19 10:53:20;;;;;;;2.65;0.50;;;36.20;37.30;;;;;;5013815;28;20029;-83
2021/06/19 10:55:52;;;;;;;0.80;0.40;;;36.10;37.80;;;;;;5015581;28;20108;-84
2021/06/19 10:58:19;;;;;;;1.52;0.50;;;36.20;38.00;;;;;;5015356;28;20049;-84
2021/06/19 11:01:04;;;;;;;1.52;0.40;;;36.30;37.60;;;;;;5038383;28;20040;-83
2021/06/19 11:03:50;;;;;;;1.08;0.40;;;36.30;37.80;;;;;;5032510;28;20053;-83
2021/06/19 11:06:27;;;;;;;1.00;0.50;;;36.50;37.40;;;;;;5033449;28;20163;-81
2021/06/19 11:09:10;;;;;;;2.78;0.52;;;36.60;37.00;;;;;;5032339;28;20029;-84
2021/06/19 11:11:55;;;;;;;1.10;0.45;;;36.80;36.70;;;;;;5029975;28;20037;-82
2021/06/19 11:14:42;;;;;;;1.42;0.50;;;36.70;36.80;;;;;;5016864;28;20485;-82
2021/06/19 11:17:09;;;;;;;0.90;0.40;;;36.60;37.30;;;;;;5016841;28;20026;-82
2021/06/19 11:19:39;;;;;;;3.30;0.63;;;36.40;37.20;;;;;;5016723;28;20025;-83
2021/06/19 11:22:27;;;;;;;2.03;0.63;;;36.20;37.50;;;;;;5055888;28;20049;-84
2021/06/19 11:25:17;;;;;;;1.10;0.60;;;35.60;37.50;;;;;;5055427;28;20040;-85
2021/06/19 11:27:49;;;;;;;1.67;0.50;;;35.10;38.40;;;;;;5062198;28;20067;-87
2021/06/19 11:30:33;;;;;;;1.50;0.40;;;35.20;38.50;;;;;;5043930;28;20026;-85
2021/06/19 11:33:19;;;;;;;1.25;0.40;;;35.70;39.10;;;;;;5048800;28;20048;-85
2021/06/19 11:35:46;;;;;;;1.25;0.52;;;35.90;38.10;;;;;;5057918;28;20089;-88
2021/06/19 11:38:13;;;;;;;0.90;0.50;;;36.00;37.60;;;;;;5055325;28;20480;-86
2021/06/19 11:40:39;;;;;;;1.05;0.50;;;35.80;37.80;;;;;;5054028;28;20029;-86
2021/06/19 11:43:08;;;;;;;0.80;0.50;;;35.60;38.20;;;;;;5036737;28;20029;-85
2021/06/19 11:45:36;;;;;;;1.83;0.50;;;35.60;38.20;;;;;;5053593;28;20477;-85
2021/06/19 11:48:02;;;;;;;1.27;0.60;;;35.60;38.40;;;;;;5051561;28;20036;-84
2021/06/19 11:50:29;;;;;;;2.17;0.50;;;35.60;38.40;;;;;;5054714;28;20025;-84
2021/06/19 11:52:54;;;;;;;0.90;0.60;;;35.70;39.00;;;;;;5036807;28;20376;-84
2021/06/19 11:55:23;;;;;;;0.60;0.40;;;35.70;38.30;;;;;;5053410;28;20032;-84
2021/06/19 11:57:58;;;;;;;2.08;0.52;;;35.60;38.70;;;;;;5053517;28;20037;-86
2021/06/19 12:00:24;;;;;;;1.55;0.60;;;35.60;38.00;;;;;;5053076;28;20504;-85
2021/06/19 12:02:53;;;;;;;1.27;0.50;;;35.30;38.20;;;;;;5035676;28;20124;-87
2021/06/19 12:05:19;;;;;;;1.42;0.40;;;34.80;39.10;;;;;;5053253;28;20023;-83
2021/06/19 12:07:46;;;;;;;1.65;0.50;;;34.50;39.60;;;;;;5052635;28;20119;-84
2021/06/19 12:10:29;;;;;;;1.00;0.50;;;34.20;39.70;;;;;;5052514;28;20091;-84
2021/06/19 12:13:07;;;;;;;1.67;0.50;;;34.20;39.80;;;;;;5052470;28;20021;-87
2021/06/19 12:15:33;;;;;;;0.60;0.47;;;34.20;39.50;;;;;;5036603;28;20129;-84
2021/06/19 12:18:01;;;;;;;1.17;0.40;;;34.30;39.70;;;;;;5053113;28;20021;-82
2021/06/19 12:20:27;;;;;;;1.75;0.40;;;34.20;39.70;;;;;;5052312;28;20025;-81
2021/06/19 12:22:53;;;;;;;2.10;0.65;;;34.40;39.90;;;;;;5052004;28;20037;-85
2021/06/19 12:25:30;;;;;;;3.10;0.70;;;34.70;39.80;;;;;;5052409;28;20071;-79
2021/06/19 12:27:56;;;;;;;2.38;0.60;;;34.90;39.50;;;;;;5053177;28;20025;-82
2021/06/19 12:30:22;;;;;;;1.30;0.40;;;35.00;39.20;;;;;;5035579;28;20029;-81
2021/06/19 12:32:49;;;;;;;0.60;0.40;;;34.80;39.50;;;;;;5035793;28;20056;-82
2021/06/19 12:35:18;;;;;;;2.45;0.40;;;35.00;39.00;;;;;;5051785;28;20017;-81
2021/06/19 12:37:56;;;;;;;0.98;0.40;;;35.20;38.90;;;;;;5051936;28;20120;-81
2021/06/19 12:40:26;;;;;;;1.17;0.40;;;35.50;38.80;;;;;;5053471;28;20099;-81
2021/06/19 12:42:58;;;;;;;2.47;0.55;;;35.70;38.00;;;;;;5053400;28;20058;-81
2021/06/19 12:45:36;;;;;;;0.85;0.50;;;35.50;37.70;;;;;;5051683;28;20028;-81
2021/06/19 12:48:08;;;;;;;1.42;0.47;;;35.10;38.80;;;;;;5051064;28;20075;-80
2021/06/19 12:50:35;;;;;;;1.92;0.60;;;35.00;39.00;;;;;;5052960;28;20041;-80
2021/06/19 12:53:11;;;;;;;1.75;0.50;;;35.10;38.90;;;;;;5050810;28;20021;-81
2021/06/19 12:55:38;;;;;;;1.35;0.57;;;35.20;39.10;;;;;;5051622;28;20025;-81
2021/06/19 12:58:13;;;;;;;1.08;0.50;;;35.20;39.10;;;;;;5050924;28;20466;-82
2021/06/19 13:00:40;;;;;;;1.13;0.60;;;34.90;38.90;;;;;;5050389;28;20020;-81